Time;durP1;ratioP1;P1;durP2;ratioP2;P2;SDS_P1;SDS_P2;PMS_P1;PMS_P2;Temp;Humidity;BMP_temperature;BMP_pressure;BME280_temperature;BME280_humidity;BME280_pressure;Samples;Min_cycle;Max_cycle;Signal;HPM_P1;HPM_P2
2022/11/03 00:01:04;;;;;;;4.38;1.40;;;;;;;12.56;36.28;101267.91;4906217;29;20059;-71
2022/11/03 00:03:31;;;;;;;4.60;1.88;;;;;;;12.55;36.24;101274.38;4910125;29;20048;-71
2022/11/03 00:06:05;;;;;;;7.55;2.03;;;;;;;12.53;36.44;101268.19;4908250;29;20052;-71
2022/11/03 00:08:35;;;;;;;5.05;1.77;;;;;;;12.54;36.18;101261.69;4907932;29;20096;-70
2022/11/03 00:11:07;;;;;;;4.97;1.70;;;;;;;12.56;36.26;101261.53;4914212;29;20044;-71
2022/11/03 00:13:36;;;;;;;5.43;1.87;;;;;;;12.51;36.41;101264.72;4907367;29;20044;-71
2022/11/03 00:16:05;;;;;;;6.10;1.52;;;;;;;12.54;36.36;101255.34;4912074;29;20464;-70
2022/11/03 00:18:33;;;;;;;4.95;2.00;;;;;;;12.54;36.29;101255.34;4912404;29;20040;-70
2022/11/03 00:21:03;;;;;;;4.82;1.88;;;;;;;12.55;36.04;101248.81;4911997;29;20445;-70
2022/11/03 00:23:32;;;;;;;3.65;1.60;;;;;;;12.55;36.26;101246.94;4915935;29;20127;-70
2022/11/03 00:26:09;;;;;;;5.78;1.90;;;;;;;12.56;36.78;101239.56;4912593;29;20817;-69
2022/11/03 00:28:38;;;;;;;4.78;1.83;;;;;;;12.52;36.37;101244.50;4912642;29;20044;-69
2022/11/03 00:31:08;;;;;;;5.20;1.70;;;;;;;12.54;36.94;101252.59;4912127;29;20143;-70
2022/11/03 00:33:38;;;;;;;4.95;1.75;;;;;;;12.51;36.54;101242.75;4913384;29;20062;-70
2022/11/03 00:36:07;;;;;;;4.30;2.15;;;;;;;12.51;37.04;101240.00;4910416;29;20529;-69
2022/11/03 00:38:36;;;;;;;4.28;1.90;;;;;;;12.50;36.79;101238.25;4912074;29;20044;-70
2022/11/03 00:41:05;;;;;;;3.83;1.83;;;;;;;12.51;36.86;101229.03;4912902;29;20070;-69
2022/11/03 00:43:35;;;;;;;5.72;2.05;;;;;;;12.51;36.62;101226.28;4913967;29;20099;-70
2022/11/03 00:46:05;;;;;;;6.82;1.98;;;;;;;12.49;36.58;101228.28;4912093;29;20051;-69
2022/11/03 00:48:34;;;;;;;5.47;2.20;;;;;;;12.49;36.70;101215.41;4913557;29;20061;-70
2022/11/03 00:51:08;;;;;;;5.93;2.30;;;;;;;12.49;37.18;101220.91;4910773;29;20044;-70
2022/11/03 00:53:37;;;;;;;5.60;2.00;;;;;;;12.47;36.72;101220.19;4910593;29;20466;-70
2022/11/03 00:56:07;;;;;;;5.63;2.13;;;;;;;12.48;36.88;101218.31;4912830;29;20477;-70
2022/11/03 00:58:36;;;;;;;5.78;2.20;;;;;;;12.47;36.85;101220.19;4913030;29;20048;-70
2022/11/03 01:01:06;;;;;;;6.85;2.50;;;;;;;12.47;37.12;101222.06;4911844;29;20800;-69
2022/11/03 01:03:36;;;;;;;7.13;2.47;;;;;;;12.47;37.56;101217.44;4911392;29;20111;-69
2022/11/03 01:08:51;;;;;;;5.72;2.22;;;;;;;12.45;37.35;101215.84;4906610;29;21616;-70
2022/11/03 01:14:09;;;;;;;4.60;1.90;;;;;;;12.45;37.24;101205.75;4907566;29;20036;-70
2022/11/03 01:16:37;;;;;;;4.72;2.17;;;;;;;12.44;37.08;101217.72;4905234;29;20127;-70
2022/11/03 01:19:05;;;;;;;5.47;2.25;;;;;;;12.45;37.47;101207.63;4911993;29;20044;-70
2022/11/03 01:21:33;;;;;;;4.55;2.20;;;;;;;12.46;37.65;101212.94;4909824;29;20123;-70
2022/11/03 01:24:01;;;;;;;5.68;2.45;;;;;;;12.46;37.70;101206.59;4907021;29;20044;-70
2022/11/03 01:26:29;;;;;;;6.35;2.22;;;;;;;12.46;37.27;101203.84;4909205;29;20043;-70
2022/11/03 01:28:59;;;;;;;7.43;2.70;;;;;;;12.46;37.77;101196.47;4912248;29;20040;-70
2022/11/03 01:31:29;;;;;;;6.50;2.47;;;;;;;12.47;37.56;101189.97;4910499;29;20076;-70
2022/11/03 01:33:57;;;;;;;4.95;2.33;;;;;;;12.46;37.54;101190.97;4909228;29;20036;-70
2022/11/03 01:36:25;;;;;;;5.53;2.17;;;;;;;12.48;37.57;101188.09;4907662;29;20048;-70
2022/11/03 01:38:55;;;;;;;6.22;2.28;;;;;;;12.48;37.51;101179.88;4909677;29;20040;-70
2022/11/03 01:41:24;;;;;;;5.53;2.10;;;;;;;12.48;37.47;101174.38;4910706;29;20055;-71
2022/11/03 01:44:29;;;;;;;4.55;2.25;;;;;;;12.47;38.08;101165.28;4908402;29;20041;-70
2022/11/03 01:47:08;;;;;;;5.85;2.35;;;;;;;12.48;38.34;101166.13;4910069;29;20627;-70
2022/11/03 01:49:44;;;;;;;6.15;2.40;;;;;;;12.48;38.04;101169.75;4910761;29;20044;-70
2022/11/03 01:52:16;;;;;;;4.35;2.05;;;;;;;12.49;38.08;101159.66;4910302;29;20503;-70
2022/11/03 01:54:48;;;;;;;5.93;2.30;;;;;;;12.47;37.90;101159.78;4911972;29;20374;-70
2022/11/03 01:57:22;;;;;;;5.47;2.40;;;;;;;12.47;38.35;101156.16;4910108;29;20044;-70
2022/11/03 01:59:51;;;;;;;5.28;2.20;;;;;;;12.45;38.33;101148.09;4911817;29;20107;-70
2022/11/03 02:02:27;;;;;;;7.90;2.53;;;;;;;12.45;38.37;101142.59;4911966;29;20048;-70
2022/11/03 02:04:58;;;;;;;6.00;2.42;;;;;;;12.45;38.05;101142.59;4913299;29;20202;-70
2022/11/03 02:07:32;;;;;;;7.05;2.53;;;;;;;12.45;37.99;101136.25;4908002;29;20040;-70
2022/11/03 02:10:01;;;;;;;5.13;2.22;;;;;;;12.41;38.08;101130.16;4911632;29;20050;-70
2022/11/03 02:12:29;;;;;;;6.45;2.50;;;;;;;12.40;37.98;101128.41;4910240;29;20052;-70
2022/11/03 02:15:02;;;;;;;6.05;2.55;;;;;;;12.41;38.61;101126.53;4911649;29;20063;-71
2022/11/03 02:17:33;;;;;;;6.15;2.50;;;;;;;12.37;38.71;101125.09;4910476;29;20051;-70
2022/11/03 02:20:05;;;;;;;6.45;2.47;;;;;;;12.38;38.33;101121.31;4925123;29;20803;-71
2022/11/03 02:22:48;;;;;;;6.40;2.42;;;;;;;12.35;38.80;101118.88;4906040;29;20049;-70
2022/11/03 02:25:19;;;;;;;7.00;2.63;;;;;;;12.33;38.22;101116.25;4926097;29;20052;-70
2022/11/03 02:27:49;;;;;;;5.57;3.00;;;;;;;12.33;38.34;101115.38;4908759;29;20056;-70
2022/11/03 02:30:16;;;;;;;4.70;2.10;;;;;;;12.31;38.28;101114.66;4909924;29;20048;-70
2022/11/03 02:32:55;;;;;;;5.07;2.17;;;;;;;12.33;39.03;101096.19;4911070;29;20052;-70
2022/11/03 02:35:31;;;;;;;5.43;2.60;;;;;;;12.31;38.68;101099.06;4902996;29;20438;-70
2022/11/03 02:38:01;;;;;;;6.53;2.50;;;;;;;12.29;38.56;101092.00;4909791;29;20047;-70
2022/11/03 02:40:33;;;;;;;5.40;2.22;;;;;;;12.29;39.03;101081.88;4909971;29;20044;-70
2022/11/03 02:43:03;;;;;;;5.80;2.08;;;;;;;12.28;39.24;101079.28;4903633;29;20048;-71
2022/11/03 02:45:32;;;;;;;5.95;2.65;;;;;;;12.27;38.85;101070.19;4907599;29;22232;-70
2022/11/03 02:48:03;;;;;;;6.53;2.63;;;;;;;12.27;38.94;101072.91;4910732;29;20048;-70
2022/11/03 02:50:33;;;;;;;6.40;2.30;;;;;;;12.25;38.98;101061.19;4911368;29;20036;-70
2022/11/03 02:53:01;;;;;;;6.65;2.30;;;;;;;12.22;39.18;101058.72;4905455;29;20052;-70
2022/11/03 02:55:35;;;;;;;4.38;1.98;;;;;;;12.24;39.15;101053.97;4911664;29;20116;-70
2022/11/03 02:58:14;;;;;;;6.40;2.92;;;;;;;12.23;39.25;101056.84;4908470;29;20130;-70
2022/11/03 03:00:48;;;;;;;7.25;2.60;;;;;;;12.22;39.76;101057.84;4906788;29;20052;-70
2022/11/03 03:03:22;;;;;;;4.82;2.22;;;;;;;12.21;39.22;101054.28;4908210;29;20457;-70
2022/11/03 03:05:55;;;;;;;3.80;2.13;;;;;;;12.21;39.36;101047.91;4907833;29;20044;-70
2022/11/03 03:08:25;;;;;;;7.15;2.33;;;;;;;12.18;39.04;101043.56;4907704;29;20044;-70
2022/11/03 03:10:53;;;;;;;6.70;2.40;;;;;;;12.18;39.22;101034.47;4911404;29;20529;-70
2022/11/03 03:13:24;;;;;;;5.07;2.22;;;;;;;12.21;39.94;101046.03;4903639;29;20666;-70
2022/11/03 03:16:04;;;;;;;4.63;2.13;;;;;;;12.23;39.77;101043.13;4910792;29;20044;-70
2022/11/03 03:18:42;;;;;;;4.88;2.17;;;;;;;12.24;40.52;101043.00;4910467;29;20055;-70
2022/11/03 03:21:15;;;;;;;6.30;2.28;;;;;;;12.23;40.20;101032.16;4905532;29;20118;-70
2022/11/03 03:23:48;;;;;;;7.05;2.28;;;;;;;12.23;40.12;101029.41;4900304;29;20054;-70
2022/11/03 03:26:22;;;;;;;5.25;2.33;;;;;;;12.26;40.15;101023.66;4904979;29;20056;-70
2022/11/03 03:28:55;;;;;;;4.70;2.40;;;;;;;12.27;39.97;101025.41;4904079;29;20424;-69
2022/11/03 03:31:25;;;;;;;6.15;2.55;;;;;;;12.27;40.09;101018.03;4907091;29;20123;-70
2022/11/03 03:33:56;;;;;;;5.13;2.25;;;;;;;12.28;40.25;101016.16;4910010;29;20494;-70
2022/11/03 03:36:34;;;;;;;4.93;2.20;;;;;;;12.29;40.24;101021.50;4908984;29;20043;-70
2022/11/03 03:39:06;;;;;;;4.55;2.10;;;;;;;12.30;40.33;101006.75;4908453;29;20481;-71
2022/11/03 03:41:36;;;;;;;;;;;;;;;12.05;40.68;101023.72;4908642;29;20667;-71
2022/11/03 03:44:08;;;;;;;4.93;2.00;;;;;;;12.29;40.50;101013.28;4910527;29;20440;-71
2022/11/03 03:46:38;;;;;;;7.32;2.22;;;;;;;12.30;40.13;101006.75;4910155;29;20074;-71
2022/11/03 03:49:06;;;;;;;6.63;2.47;;;;;;;12.32;40.52;101002.00;4910477;29;20498;-71
2022/11/03 03:51:35;;;;;;;7.28;2.65;;;;;;;12.35;40.32;100998.09;4903942;29;20479;-71
2022/11/03 03:54:03;;;;;;;5.00;2.65;;;;;;;12.35;40.21;100995.38;4910672;29;20048;-71
2022/11/03 03:56:34;;;;;;;4.97;2.33;;;;;;;12.37;40.23;100988.72;4905384;29;20044;-71
2022/11/03 03:59:02;;;;;;;7.43;2.47;;;;;;;12.36;40.07;100991.63;4906941;29;20054;-71
2022/11/03 04:01:31;;;;;;;6.43;2.83;;;;;;;12.38;40.42;100992.31;4907908;29;20450;-71
2022/11/03 04:03:59;;;;;;;6.10;2.20;;;;;;;12.37;40.38;100985.13;4909413;29;20099;-71
2022/11/03 04:06:27;;;;;;;7.07;2.75;;;;;;;12.37;40.32;100982.38;4907405;29;20088;-71
2022/11/03 04:08:55;;;;;;;8.18;2.88;;;;;;;12.37;40.32;100980.50;4904080;29;20044;-71
2022/11/03 04:22:35;;;;;;;6.85;2.88;;;;;;;12.37;40.99;100964.03;4909190;29;20079;-70
2022/11/03 04:25:03;;;;;;;5.55;2.75;;;;;;;12.39;40.48;100964.72;4917306;29;20044;-70
2022/11/03 04:27:33;;;;;;;6.82;2.80;;;;;;;12.41;40.82;100967.34;4909951;29;20044;-70
2022/11/03 04:30:13;;;;;;;5.38;2.33;;;;;;;12.42;41.13;100972.69;4902157;29;20123;-70
2022/11/03 04:32:43;;;;;;;5.32;2.50;;;;;;;12.41;40.90;100972.81;4903661;29;20147;-70
2022/11/03 04:35:16;;;;;;;5.82;2.55;;;;;;;12.43;41.15;100962.59;4909212;29;20322;-71
2022/11/03 04:37:44;;;;;;;6.32;2.60;;;;;;;12.41;40.92;100956.34;4902710;29;20075;-70
2022/11/03 04:40:16;;;;;;;4.97;2.88;;;;;;;12.42;40.96;100958.09;4910499;29;20095;-71
2022/11/03 04:42:45;;;;;;;7.13;2.35;;;;;;;12.43;40.53;100959.84;4908337;29;20893;-71
2022/11/03 04:45:21;;;;;;;5.45;3.10;;;;;;;12.43;40.75;100960.69;4910273;29;20521;-71
2022/11/03 04:47:52;;;;;;;4.68;2.25;;;;;;;12.42;41.09;100947.13;4903746;29;20097;-72
2022/11/03 04:50:22;;;;;;;5.05;2.38;;;;;;;12.41;40.68;100950.88;4904206;29;20059;-71
2022/11/03 04:52:55;;;;;;;7.57;2.33;;;;;;;12.42;41.28;100941.63;4911284;29;20044;-72
2022/11/03 04:55:23;;;;;;;5.03;2.28;;;;;;;12.38;40.92;100942.91;4910902;29;20044;-71
2022/11/03 04:57:56;;;;;;;5.70;2.60;;;;;;;12.42;41.39;100944.38;4910669;29;20561;-71
2022/11/03 05:00:24;;;;;;;6.20;2.50;;;;;;;12.39;40.74;100929.06;4906512;29;20130;-71
2022/11/03 05:02:54;;;;;;;6.88;2.85;;;;;;;12.41;41.19;100932.53;4912447;29;20493;-71
2022/11/03 05:05:25;;;;;;;5.57;2.38;;;;;;;12.41;41.12;100939.88;4911792;29;20123;-71
2022/11/03 05:07:55;;;;;;;6.25;2.35;;;;;;;12.41;41.33;100927.03;4911128;29;20051;-71
2022/11/03 05:10:25;;;;;;;4.97;2.70;;;;;;;12.42;41.20;100930.66;4913555;29;20036;-72
2022/11/03 05:12:54;;;;;;;5.82;2.58;;;;;;;12.40;40.97;100921.69;4913593;29;20052;-71
2022/11/03 05:15:31;;;;;;;7.53;2.25;;;;;;;12.42;41.12;100916.94;4905223;29;20084;-71
2022/11/03 05:18:04;;;;;;;5.13;2.20;;;;;;;12.38;41.48;100907.22;4907760;29;20075;-71
2022/11/03 05:20:36;;;;;;;5.72;2.25;;;;;;;12.36;41.55;100909.28;4912214;29;20048;-71
2022/11/03 05:23:05;;;;;;;6.55;2.20;;;;;;;12.33;41.01;100899.44;4912360;29;20052;-71
2022/11/03 05:25:40;;;;;;;5.55;2.15;;;;;;;12.35;41.63;100893.81;4913905;29;20103;-72
2022/11/03 05:28:20;;;;;;;4.32;2.15;;;;;;;12.32;41.80;100899.59;4925266;29;20079;-72
2022/11/03 05:30:49;;;;;;;5.65;2.30;;;;;;;12.29;40.89;100889.78;4907101;29;20117;-71
2022/11/03 05:33:27;;;;;;;4.18;1.88;;;;;;;12.29;41.51;100880.69;4912450;29;20144;-71
2022/11/03 05:35:58;;;;;;;5.07;2.30;;;;;;;12.25;41.23;100882.84;4910714;29;20044;-71
2022/11/03 05:38:30;;;;;;;5.85;2.42;;;;;;;12.25;41.32;100880.09;4912030;29;20430;-70
2022/11/03 05:41:00;;;;;;;5.32;1.77;;;;;;;12.21;41.19;100877.81;4907980;29;20143;-70
2022/11/03 05:43:28;;;;;;;4.47;1.80;;;;;;;12.22;41.14;100871.28;4910766;29;20055;-70
2022/11/03 05:46:01;;;;;;;6.97;2.35;;;;;;;12.22;41.09;100874.00;4907490;29;20131;-70
2022/11/03 05:48:34;;;;;;;5.22;1.88;;;;;;;12.21;41.49;100872.31;4911375;29;20611;-70
2022/11/03 05:51:15;;;;;;;4.60;1.98;;;;;;;12.18;42.12;100870.72;4911682;29;20390;-70
2022/11/03 05:53:43;;;;;;;5.68;2.00;;;;;;;12.16;41.29;100861.75;4913080;29;20050;-70
2022/11/03 05:56:18;;;;;;;6.47;2.58;;;;;;;12.19;41.90;100857.88;4912668;29;20490;-70
2022/11/03 05:58:48;;;;;;;4.95;1.85;;;;;;;12.16;41.68;100850.78;4917838;29;20553;-70
2022/11/03 06:01:22;;;;;;;6.28;2.17;;;;;;;12.18;41.52;100861.63;4906418;29;20110;-70
2022/11/03 06:03:52;;;;;;;4.32;2.00;;;;;;;12.17;41.35;100854.38;4909741;29;20087;-70
2022/11/03 06:06:24;;;;;;;5.82;2.10;;;;;;;12.14;42.58;100852.78;4904180;29;20053;-70
2022/11/03 06:08:59;;;;;;;5.53;1.83;;;;;;;12.15;41.38;100860.03;4911581;29;20067;-70
2022/11/03 06:11:32;;;;;;;4.63;2.20;;;;;;;12.16;41.93;100847.16;4910348;29;20044;-69
2022/11/03 06:14:01;;;;;;;5.65;1.90;;;;;;;12.10;41.84;100844.00;4912086;29;20059;-70
2022/11/03 06:16:36;;;;;;;5.25;2.10;;;;;;;12.15;41.69;100842.69;4909905;29;20044;-70
2022/11/03 06:19:18;;;;;;;5.50;2.28;;;;;;;12.15;42.14;100834.47;4910328;29;20076;-70
2022/11/03 06:21:47;;;;;;;5.43;2.03;;;;;;;12.11;41.54;100825.66;4909772;29;20052;-70
2022/11/03 06:24:17;;;;;;;5.18;2.22;;;;;;;12.13;41.33;100831.00;4912526;29;20115;-71
2022/11/03 06:26:47;;;;;;;5.85;1.95;;;;;;;12.13;41.70;100831.00;4908806;29;20560;-72
2022/11/03 06:29:17;;;;;;;5.88;2.00;;;;;;;12.12;41.82;100835.63;4911221;29;20055;-70
2022/11/03 06:31:47;;;;;;;4.68;1.95;;;;;;;12.11;41.96;100820.19;4905247;29;20128;-71
2022/11/03 06:34:31;;;;;;;4.65;1.95;;;;;;;12.13;42.23;100816.25;4909210;29;20135;-69
2022/11/03 06:37:02;;;;;;;6.10;2.33;;;;;;;12.10;41.97;100821.19;4901264;29;20062;-70
2022/11/03 06:39:29;;;;;;;5.50;2.22;;;;;;;12.09;41.61;100828.56;4910904;29;20046;-70
2022/11/03 06:41:57;;;;;;;4.60;1.85;;;;;;;12.10;41.86;100824.81;4910890;29;20063;-71
2022/11/03 06:44:27;;;;;;;5.70;1.90;;;;;;;12.10;41.92;100822.06;4909127;29;20537;-71
2022/11/03 06:46:57;;;;;;;4.13;1.83;;;;;;;12.11;42.22;100815.56;4920596;29;20421;-70
2022/11/03 06:49:29;;;;;;;5.70;2.05;;;;;;;12.13;42.36;100815.38;4912101;29;20120;-71
2022/11/03 06:52:02;;;;;;;6.47;2.20;;;;;;;12.10;41.97;100805.59;4907075;29;20071;-71
2022/11/03 06:54:29;;;;;;;6.28;2.05;;;;;;;12.09;42.24;100801.13;4910080;29;20048;-71
2022/11/03 06:56:57;;;;;;;5.47;2.00;;;;;;;12.11;42.09;100793.63;4904697;29;20123;-70
2022/11/03 06:59:25;;;;;;;7.13;1.95;;;;;;;12.11;42.35;100796.38;4908500;29;20134;-70
2022/11/03 07:01:55;;;;;;;5.50;2.15;;;;;;;12.13;42.29;100781.63;4934356;23;20096;-82
2022/11/03 07:04:28;;;;;;;5.10;2.10;;;;;;;12.13;42.03;100783.34;4915977;29;20135;-81
2022/11/03 07:07:00;;;;;;;6.68;1.70;;;;;;;12.11;42.22;100776.28;4910555;29;20052;-82
2022/11/03 07:09:28;;;;;;;4.00;1.88;;;;;;;12.10;42.01;100780.03;4901563;29;20140;-82
2022/11/03 07:11:58;;;;;;;4.63;1.90;;;;;;;12.13;42.19;100775.09;4930398;29;20056;-81
2022/11/03 07:14:29;;;;;;;3.50;1.80;;;;;;;12.14;41.87;100762.25;4928560;29;20472;-82
2022/11/03 07:17:00;;;;;;;6.28;2.10;;;;;;;12.15;42.10;100765.88;4915244;29;20062;-80
2022/11/03 07:19:34;;;;;;;5.35;1.98;;;;;;;12.15;42.82;100777.72;4936588;29;20130;-81
2022/11/03 07:22:05;;;;;;;4.65;2.10;;;;;;;12.15;42.40;100774.97;4911231;29;20515;-82
2022/11/03 07:24:38;;;;;;;4.38;2.10;;;;;;;12.17;42.13;100774.81;4936001;29;20076;-82
2022/11/03 07:27:17;;;;;;;3.78;1.60;;;;;;;12.17;42.47;100774.81;4931361;29;20054;-82
2022/11/03 07:29:46;;;;;;;5.55;1.88;;;;;;;12.16;42.45;100762.13;4922391;29;20189;-81
2022/11/03 07:32:19;;;;;;;6.75;2.10;;;;;;;12.18;43.00;100758.22;4931528;29;20494;-81
2022/11/03 07:34:51;;;;;;;6.43;2.55;;;;;;;12.20;42.84;100749.84;4924216;29;20146;-81
2022/11/03 07:37:21;;;;;;;5.93;1.77;;;;;;;12.18;42.59;100760.09;4898536;28;20039;-82
2022/11/03 07:39:50;;;;;;;4.65;1.90;;;;;;;12.23;42.61;100757.78;4919895;29;20546;-81
2022/11/03 07:42:21;;;;;;;6.63;2.17;;;;;;;12.26;42.28;100752.00;4919507;29;20051;-81
2022/11/03 07:44:52;;;;;;;6.13;2.03;;;;;;;12.26;42.60;100746.50;4905600;29;20044;-80
2022/11/03 07:47:24;;;;;;;5.35;2.25;;;;;;;12.29;42.60;100736.13;4927082;29;20103;-82
2022/11/03 07:49:54;;;;;;;5.30;2.17;;;;;;;12.32;43.04;100744.03;4917010;29;20201;-82
2022/11/03 07:52:24;;;;;;;5.00;2.35;;;;;;;12.34;42.75;100736.53;4911903;29;20067;-82
2022/11/03 07:54:55;;;;;;;4.07;2.40;;;;;;;12.37;42.39;100736.22;4923726;29;20044;-82
2022/11/03 07:57:26;;;;;;;5.78;2.47;;;;;;;12.40;42.58;100735.06;4922735;29;20056;-81
2022/11/03 07:59:58;;;;;;;4.90;2.10;;;;;;;12.43;42.75;100719.16;4911980;29;20469;-81
2022/11/03 08:02:46;;;;;;;6.28;2.53;;;;;;;12.47;42.98;100725.19;4916219;29;20043;-81
2022/11/03 08:05:16;;;;;;;5.28;2.20;;;;;;;12.50;42.35;100720.28;4923790;29;20059;-82
2022/11/03 08:07:49;;;;;;;9.35;2.25;;;;;;;12.53;42.55;100730.13;4928004;29;20066;-82
2022/11/03 08:10:17;;;;;;;6.35;2.10;;;;;;;12.57;42.63;100719.69;4918907;29;20032;-82
2022/11/03 08:12:45;;;;;;;6.30;2.33;;;;;;;12.60;42.63;100713.91;4912374;29;20055;-81
2022/11/03 08:15:14;;;;;;;5.93;2.20;;;;;;;12.62;42.59;100721.00;4910713;29;20052;-82
2022/11/03 08:17:42;;;;;;;5.53;2.42;;;;;;;12.67;42.70;100723.28;4920572;29;20047;-81
2022/11/03 08:20:11;;;;;;;4.65;2.20;;;;;;;12.69;42.65;100708.41;4936823;29;20041;-81
2022/11/03 08:22:40;;;;;;;6.30;2.50;;;;;;;12.73;42.31;100701.56;4911535;29;20071;-81
2022/11/03 08:25:16;;;;;;;6.60;2.67;;;;;;;12.74;42.53;100713.41;4937119;29;20139;-81
2022/11/03 08:27:44;;;;;;;5.40;2.28;;;;;;;12.75;42.36;100699.53;4944680;29;20051;-81
2022/11/03 08:30:13;;;;;;;4.70;2.40;;;;;;;12.79;42.52;100691.84;4915838;29;20056;-81
2022/11/03 08:32:41;;;;;;;5.13;2.13;;;;;;;12.81;42.89;100685.19;4911281;29;20081;-81
2022/11/03 08:35:09;;;;;;;5.32;2.50;;;;;;;12.83;42.64;100674.94;4920864;29;20095;-81
2022/11/03 08:37:40;;;;;;;5.40;2.22;;;;;;;12.88;42.71;100689.06;4910906;29;20073;-80
2022/11/03 08:40:09;;;;;;;5.95;2.83;;;;;;;12.88;42.27;100683.56;4907011;29;20049;-81
2022/11/03 08:42:37;;;;;;;7.88;2.42;;;;;;;12.91;42.85;100681.53;4898881;29;20398;-81
2022/11/03 08:45:06;;;;;;;4.63;2.38;;;;;;;12.94;42.34;100670.25;4900338;29;20044;-81
2022/11/03 08:47:33;;;;;;;5.00;2.40;;;;;;;12.95;42.88;100664.59;4904149;29;20053;-81
2022/11/03 08:50:01;;;;;;;4.43;2.30;;;;;;;12.97;42.47;100659.78;4898766;29;20048;-81
2022/11/03 08:52:29;;;;;;;5.65;2.50;;;;;;;12.99;42.39;100660.50;4903354;29;20080;-81
2022/11/03 08:54:58;;;;;;;6.38;2.28;;;;;;;13.03;42.87;100658.34;4914375;29;20052;-81
2022/11/03 08:57:26;;;;;;;6.13;2.20;;;;;;;13.03;42.44;100656.44;4914589;29;20045;-81
2022/11/03 08:59:55;;;;;;;4.82;2.38;;;;;;;13.05;42.49;100639.78;4916342;29;20487;-81
2022/11/03 09:02:22;;;;;;;7.55;2.60;;;;;;;13.05;42.60;100639.78;4926471;29;20052;-81
2022/11/03 09:04:50;;;;;;;5.90;2.10;;;;;;;13.08;42.41;100637.59;4910899;29;20049;-81
2022/11/03 09:07:18;;;;;;;5.63;2.45;;;;;;;13.09;42.63;100647.59;4902901;29;20056;-81
2022/11/03 09:09:46;;;;;;;6.32;2.65;;;;;;;13.12;42.71;100639.00;4899787;29;20128;-81
2022/11/03 09:12:36;;;;;;;5.03;2.33;;;;;;;13.14;42.80;100633.34;4919633;29;20052;-82
2022/11/03 09:15:05;;;;;;;6.85;2.50;;;;;;;13.15;42.73;100633.22;4922050;29;20044;-81
2022/11/03 09:17:33;;;;;;;6.53;2.55;;;;;;;13.18;42.39;100626.53;4899861;29;20055;-81
2022/11/03 09:20:00;;;;;;;5.53;2.30;;;;;;;13.20;42.93;100630.84;4916708;29;20051;-81
2022/11/03 09:22:28;;;;;;;4.78;2.13;;;;;;;13.24;42.47;100617.66;4909905;29;20101;-82
2022/11/03 09:24:57;;;;;;;4.65;2.22;;;;;;;13.24;42.50;100610.28;4908974;29;20478;-81
2022/11/03 09:27:24;;;;;;;5.85;2.28;;;;;;;13.28;42.31;100590.75;4904782;29;20090;-81
2022/11/03 09:29:54;;;;;;;5.45;2.00;;;;;;;13.31;42.56;100582.16;4914805;29;20041;-81
2022/11/03 09:32:40;;;;;;;4.70;2.20;;;;;;;13.32;42.76;100576.50;4908484;29;20083;-81
2022/11/03 09:35:08;;;;;;;5.00;2.10;;;;;;;13.36;42.42;100561.44;4919158;29;20056;-81
2022/11/03 09:37:36;;;;;;;4.60;2.10;;;;;;;13.38;42.80;100553.88;4905458;29;20041;-81
2022/11/03 09:40:05;;;;;;;5.63;2.05;;;;;;;13.40;42.37;100551.84;4918683;29;20052;-81
2022/11/03 09:42:34;;;;;;;4.35;1.70;;;;;;;13.44;42.46;100555.16;4911092;29;20112;-81
2022/11/03 09:45:04;;;;;;;4.70;2.10;;;;;;;13.45;42.48;100546.72;4908471;29;20092;-81
2022/11/03 09:47:34;;;;;;;4.40;1.85;;;;;;;13.49;42.29;100536.25;4915678;29;20131;-80
2022/11/03 09:50:03;;;;;;;3.60;1.92;;;;;;;13.50;42.39;100529.75;4921259;29;20045;-81
2022/11/03 09:52:31;;;;;;;5.78;2.08;;;;;;;13.53;42.12;100519.28;4916838;29;20048;-81
2022/11/03 09:54:59;;;;;;;4.68;2.10;;;;;;;13.54;41.94;100511.88;4915380;29;20052;-79
2022/11/03 09:57:28;;;;;;;4.55;1.95;;;;;;;13.57;42.26;100506.97;4925791;29;20072;-82
2022/11/03 09:59:56;;;;;;;4.20;1.90;;;;;;;13.58;42.29;100496.84;4930616;29;20099;-82
2022/11/03 10:02:28;;;;;;;4.22;1.80;;;;;;;13.62;42.03;100504.59;4908632;29;20055;-82
2022/11/03 10:04:58;;;;;;;4.75;2.03;;;;;;;13.61;41.98;100499.28;4911859;29;20084;-81
2022/11/03 10:07:29;;;;;;;5.75;2.17;;;;;;;13.65;42.21;100492.41;4912145;29;20059;-81
2022/11/03 10:09:59;;;;;;;4.57;1.80;;;;;;;13.68;41.73;100480.22;4905990;29;20087;-80
2022/11/03 10:12:32;;;;;;;6.00;1.95;;;;;;;13.69;41.80;100477.31;4927640;29;20052;-82
2022/11/03 10:15:00;;;;;;;6.43;2.58;;;;;;;13.67;42.14;100468.38;4910809;29;20514;-81
2022/11/03 10:17:30;;;;;;;3.72;1.73;;;;;;;13.73;41.59;100472.34;4913336;29;20117;-80
2022/11/03 10:19:58;;;;;;;4.75;1.90;;;;;;;13.73;41.49;100472.34;4910814;29;20036;-81
2022/11/03 10:22:26;;;;;;;5.53;1.83;;;;;;;13.74;41.64;100480.44;4914453;29;20040;-83
2022/11/03 10:25:27;;;;;;;6.13;2.10;;;;;;;13.77;41.48;100476.50;4919367;29;20062;-81
2022/11/03 10:28:12;;;;;;;4.38;1.90;;;;;;;13.78;41.18;100472.69;4920075;29;20048;-81
2022/11/03 10:30:52;;;;;;;5.03;2.10;;;;;;;13.81;41.38;100466.88;4925840;29;20055;-80
2022/11/03 10:33:51;;;;;;;6.45;2.08;;;;;;;13.83;41.37;100468.44;4924358;29;20583;-81
2022/11/03 10:36:24;;;;;;;5.80;2.00;;;;;;;13.85;41.00;100457.28;4903904;29;20154;-81
2022/11/03 10:38:52;;;;;;;;;;;;;;;13.57;41.89;100442.88;4905727;29;20036;-82
2022/11/03 10:41:21;;;;;;;3.60;2.00;;;;;;;13.83;41.39;100434.56;4924873;29;19955;-82
2022/11/03 10:44:01;;;;;;;2.67;1.70;;;;;;;13.90;40.76;100424.63;4905171;29;20127;-80
2022/11/03 10:46:29;;;;;;;5.30;1.98;;;;;;;13.89;40.96;100420.16;4911436;29;20558;-81
2022/11/03 10:49:19;;;;;;;4.32;1.92;;;;;;;13.92;41.09;100422.56;4926477;29;20044;-81
2022/11/03 10:51:50;;;;;;;4.97;2.10;;;;;;;13.94;41.38;100409.53;4924240;29;20571;-81
2022/11/03 10:54:21;;;;;;;3.42;1.80;;;;;;;13.94;40.90;100393.84;4926799;29;20150;-82
2022/11/03 10:56:50;;;;;;;4.95;1.70;;;;;;;13.96;41.00;100397.31;4919092;29;20789;-80
2022/11/03 10:59:20;;;;;;;4.65;1.83;;;;;;;13.99;41.33;100377.72;4909608;29;20048;-81
2022/11/03 11:01:49;;;;;;;5.30;1.52;;;;;;;14.00;40.81;100378.56;4901512;29;20055;-81
2022/11/03 11:04:21;;;;;;;4.28;1.50;;;;;;;14.04;40.79;100352.44;4908054;29;20136;-81
2022/11/03 11:06:49;;;;;;;6.40;1.60;;;;;;;14.00;40.83;100343.69;4905589;29;20052;-82
2022/11/03 11:09:22;;;;;;;3.17;1.42;;;;;;;14.08;41.26;100358.47;4908196;29;20474;-82
2022/11/03 11:12:01;;;;;;;;;;;;;;;13.81;41.63;100359.59;4917768;29;20071;-82
2022/11/03 11:14:38;;;;;;;2.88;1.50;;;;;;;14.08;40.70;100359.34;4913925;29;19923;-80
2022/11/03 11:17:49;;;;;;;4.25;1.50;;;;;;;14.10;40.50;100373.78;4910850;29;20055;-80
2022/11/03 11:20:29;;;;;;;3.22;1.50;;;;;;;14.13;40.60;100359.69;4920171;29;20079;-80
2022/11/03 11:23:48;;;;;;;4.53;1.38;;;;;;;14.16;40.35;100353.84;4913946;29;20051;-81
2022/11/03 11:26:32;;;;;;;2.90;1.60;;;;;;;14.18;40.91;100353.69;4917770;29;20356;-82
2022/11/03 11:29:43;;;;;;;2.95;1.05;;;;;;;14.19;40.55;100359.00;4928687;29;20448;-81
2022/11/03 11:32:51;;;;;;;3.97;1.50;;;;;;;14.20;40.22;100357.09;4927069;29;20081;-82
2022/11/03 11:36:05;;;;;;;3.63;1.38;;;;;;;14.22;40.12;100349.53;4930911;29;20071;-82
2022/11/03 11:38:55;;;;;;;4.30;1.58;;;;;;;14.22;40.46;100364.16;4922484;29;20037;-81
2022/11/03 11:41:58;;;;;;;3.70;1.52;;;;;;;14.27;40.45;100355.41;4919522;29;20458;-81
2022/11/03 11:44:46;;;;;;;4.18;1.50;;;;;;;14.21;40.19;100345.94;4933404;29;20048;-80
2022/11/03 11:47:30;;;;;;;4.00;1.65;;;;;;;14.28;40.15;100337.84;4923481;29;20044;-80
2022/11/03 11:50:16;;;;;;;3.72;1.20;;;;;;;14.27;40.00;100314.97;4920032;29;20138;-82
2022/11/03 11:52:50;;;;;;;5.47;1.95;;;;;;;14.28;40.14;100285.53;4926702;28;20058;-82
2022/11/03 11:55:26;;;;;;;4.35;1.70;;;;;;;14.28;39.70;100288.28;4910480;29;20308;-81
2022/11/03 11:57:55;;;;;;;3.60;1.40;;;;;;;14.28;40.54;100280.03;4909327;29;20362;-82
2022/11/03 12:00:25;;;;;;;2.65;1.50;;;;;;;14.31;40.25;100272.31;4914600;29;20039;-81
2022/11/03 12:02:53;;;;;;;4.10;1.67;;;;;;;14.30;39.90;100261.47;4925693;29;20527;-81
2022/11/03 12:05:24;;;;;;;3.20;1.30;;;;;;;14.30;40.11;100254.06;4923861;29;20043;-81
2022/11/03 12:07:52;;;;;;;4.25;1.30;;;;;;;14.28;39.84;100249.75;4918183;29;20052;-81